createdAt,value
2023-05-05T00:01:38.328Z,5.40
2023-05-05T00:04:05.757Z,5.68
2023-05-05T00:06:33.078Z,6.03
2023-05-05T00:09:00.440Z,6.50
2023-05-05T00:11:27.767Z,6.53
2023-05-05T00:13:55.043Z,7.13
2023-05-05T00:16:23.380Z,8.43
2023-05-05T00:18:50.868Z,5.50
2023-05-05T00:21:18.137Z,6.10
2023-05-05T00:23:45.458Z,6.35
2023-05-05T00:26:12.892Z,7.43
2023-05-05T00:28:40.616Z,5.85
2023-05-05T00:31:08.560Z,6.00
2023-05-05T00:33:36.500Z,6.83
2023-05-05T00:36:04.606Z,6.60
2023-05-05T00:38:31.918Z,6.95
2023-05-05T00:40:59.351Z,6.65
2023-05-05T00:43:27.662Z,6.65
2023-05-05T00:46:00.229Z,6.80
2023-05-05T00:48:29.759Z,8.25
2023-05-05T00:50:57.145Z,6.90
2023-05-05T00:53:24.558Z,6.70
2023-05-05T00:55:52.160Z,8.07
2023-05-05T00:58:19.503Z,6.93
2023-05-05T01:00:46.867Z,5.88
2023-05-05T01:03:15.424Z,5.72
2023-05-05T01:06:20.028Z,5.95
2023-05-05T01:09:06.760Z,7.72
2023-05-05T01:12:14.033Z,8.37
2023-05-05T01:14:45.209Z,6.93
2023-05-05T01:17:20.207Z,7.57
2023-05-05T01:20:09.404Z,5.93
2023-05-05T01:22:40.017Z,6.68
2023-05-05T01:25:44.871Z,5.63
2023-05-05T01:28:26.784Z,6.68
2023-05-05T01:30:57.085Z,6.20
2023-05-05T01:33:26.177Z,7.53
2023-05-05T01:35:56.077Z,11.13
2023-05-05T01:38:26.790Z,12.30
2023-05-05T01:41:07.798Z,5.45
2023-05-05T01:43:35.462Z,6.65
2023-05-05T01:46:02.859Z,7.50
2023-05-05T01:48:33.478Z,8.10
2023-05-05T01:51:01.280Z,7.37
2023-05-05T01:53:29.231Z,7.80
2023-05-05T01:55:56.494Z,6.68
2023-05-05T01:58:24.578Z,9.60
2023-05-05T02:00:52.109Z,6.55
2023-05-05T02:03:19.693Z,6.70
2023-05-05T02:05:47.254Z,7.00
2023-05-05T02:08:14.655Z,6.55
2023-05-05T02:10:42.852Z,6.35
2023-05-05T02:13:10.859Z,7.18
2023-05-05T02:15:38.665Z,6.60
2023-05-05T02:18:06.610Z,7.15
2023-05-05T02:20:34.671Z,6.45
2023-05-05T02:23:02.130Z,9.82
2023-05-05T02:25:38.841Z,7.22
2023-05-05T02:28:08.653Z,5.80
2023-05-05T02:30:35.883Z,7.22
2023-05-05T02:33:07.306Z,8.85
2023-05-05T02:35:41.324Z,8.75
2023-05-05T02:38:17.340Z,8.38
2023-05-05T02:40:47.255Z,6.27
2023-05-05T02:43:18.190Z,7.20
2023-05-05T02:45:46.326Z,9.38
2023-05-05T02:48:14.799Z,8.48
2023-05-05T02:50:42.031Z,7.35
2023-05-05T02:53:32.040Z,7.63
2023-05-05T02:56:21.010Z,9.05
2023-05-05T02:59:16.002Z,8.98
2023-05-05T03:01:54.895Z,6.50
2023-05-05T03:04:38.406Z,7.03
2023-05-05T03:07:26.475Z,9.30
2023-05-05T03:10:09.796Z,10.45
2023-05-05T03:13:00.678Z,9.35
2023-05-05T03:15:44.916Z,6.43
2023-05-05T03:18:13.221Z,7.00
2023-05-05T03:20:44.010Z,7.27
2023-05-05T03:23:13.976Z,7.10
2023-05-05T03:25:47.032Z,7.78
2023-05-05T03:28:23.603Z,8.82
2023-05-05T03:30:50.953Z,7.10
2023-05-05T03:33:19.582Z,9.90
2023-05-05T03:35:47.196Z,6.28
2023-05-05T03:38:15.025Z,7.00
2023-05-05T03:40:44.758Z,7.65
2023-05-05T03:43:15.613Z,8.82
2023-05-05T03:45:43.174Z,9.70
2023-05-05T03:48:11.220Z,6.28
2023-05-05T03:50:40.751Z,9.82
2023-05-05T03:53:08.566Z,10.57
2023-05-05T03:55:36.077Z,8.70
2023-05-05T03:58:03.500Z,7.13
2023-05-05T04:00:31.055Z,6.45
2023-05-05T04:02:59.004Z,9.23
2023-05-05T04:05:26.662Z,7.75
2023-05-05T04:07:54.580Z,7.57
2023-05-05T04:10:22.046Z,9.73
2023-05-05T04:12:49.311Z,7.38
2023-05-05T04:15:17.154Z,11.98
2023-05-05T04:17:44.972Z,7.93
2023-05-05T04:20:12.594Z,6.90
2023-05-05T04:22:40.760Z,7.43
2023-05-05T04:25:08.243Z,7.57
2023-05-05T04:27:35.729Z,8.27
2023-05-05T04:30:03.391Z,8.88
2023-05-05T04:32:32.793Z,9.52
2023-05-05T04:35:00.911Z,8.20
2023-05-05T04:37:28.427Z,8.32
2023-05-05T04:39:57.222Z,9.48
2023-05-05T04:42:24.860Z,8.05
2023-05-05T04:44:52.295Z,6.68
2023-05-05T04:47:20.623Z,8.63
2023-05-05T04:49:48.152Z,7.68
2023-05-05T04:52:15.501Z,9.02
2023-05-05T04:54:42.811Z,7.38
2023-05-05T04:57:10.186Z,11.13
2023-05-05T04:59:37.538Z,8.27
2023-05-05T05:02:05.027Z,7.55
2023-05-05T05:04:32.391Z,11.38
2023-05-05T05:06:59.847Z,8.27
2023-05-05T05:09:27.627Z,9.15
2023-05-05T05:11:58.756Z,13.37
2023-05-05T05:14:27.364Z,13.70
2023-05-05T05:16:54.803Z,7.22
2023-05-05T05:19:23.793Z,9.77
2023-05-05T05:21:51.209Z,9.38
2023-05-05T05:24:18.591Z,9.77
2023-05-05T05:26:45.889Z,10.30
2023-05-05T05:29:13.534Z,9.07
2023-05-05T05:31:40.828Z,10.23
2023-05-05T05:34:09.003Z,10.77
2023-05-05T05:36:37.327Z,9.57
2023-05-05T05:39:05.109Z,11.13
2023-05-05T05:41:32.846Z,10.60
2023-05-05T05:44:00.487Z,13.05
2023-05-05T05:46:28.512Z,10.88
2023-05-05T05:48:56.573Z,11.67
2023-05-05T05:51:24.566Z,11.50
2023-05-05T05:53:51.963Z,10.38
2023-05-05T05:56:19.934Z,8.68
2023-05-05T05:58:48.738Z,9.07
2023-05-05T06:01:16.449Z,8.77
2023-05-05T06:03:44.757Z,9.38
2023-05-05T06:06:12.249Z,8.10
2023-05-05T06:08:39.755Z,7.45
2023-05-05T06:11:07.215Z,8.25
2023-05-05T06:13:34.896Z,12.90
2023-05-05T06:16:02.754Z,8.18
2023-05-05T06:18:30.076Z,8.00
2023-05-05T06:20:57.450Z,10.57
2023-05-05T06:23:27.907Z,9.55
2023-05-05T06:25:59.978Z,7.67
2023-05-05T06:28:27.365Z,8.45
2023-05-05T06:30:54.784Z,8.73
2023-05-05T06:33:22.166Z,8.50
2023-05-05T06:35:51.400Z,11.20
2023-05-05T06:38:18.892Z,9.70
2023-05-05T06:40:52.210Z,8.52
2023-05-05T06:43:19.812Z,9.63
2023-05-05T06:45:53.913Z,12.00
2023-05-05T06:48:21.280Z,8.10
2023-05-05T06:50:48.865Z,10.50
2023-05-05T06:53:16.354Z,7.95
2023-05-05T06:55:48.247Z,7.50
2023-05-05T06:58:15.947Z,7.78
2023-05-05T07:00:43.599Z,9.35
2023-05-05T07:03:11.125Z,7.40
2023-05-05T07:05:38.454Z,7.82
2023-05-05T07:08:06.665Z,7.57
2023-05-05T07:10:33.999Z,7.95
2023-05-05T07:13:01.460Z,8.38
2023-05-05T07:15:29.827Z,12.13
2023-05-05T07:17:57.768Z,8.32
2023-05-05T07:20:25.440Z,8.63
2023-05-05T07:22:52.905Z,7.43
2023-05-05T07:25:20.386Z,7.22
2023-05-05T07:27:47.830Z,8.33
2023-05-05T07:30:18.393Z,6.68
2023-05-05T07:32:46.760Z,8.95
2023-05-05T07:35:14.203Z,9.25
2023-05-05T07:37:41.583Z,9.98
2023-05-05T07:40:09.646Z,8.80
2023-05-05T07:42:40.257Z,8.80
2023-05-05T07:45:11.153Z,6.28
2023-05-05T07:47:38.884Z,8.93
2023-05-05T07:50:07.363Z,9.15
2023-05-05T07:52:46.644Z,9.23
2023-05-05T07:55:17.245Z,10.35
2023-05-05T07:57:45.257Z,17.48
2023-05-05T08:00:13.548Z,9.20
2023-05-05T08:02:41.576Z,8.25
2023-05-05T08:05:09.677Z,9.23
2023-05-05T08:07:41.520Z,8.20
2023-05-05T08:10:10.416Z,7.43
2023-05-05T08:12:38.151Z,10.23
2023-05-05T08:15:06.696Z,9.02
2023-05-05T08:17:48.110Z,8.37
2023-05-05T08:20:19.379Z,9.18
2023-05-05T08:22:46.843Z,9.15
2023-05-05T08:25:14.358Z,8.85
2023-05-05T08:27:42.313Z,6.93
2023-05-05T08:30:10.081Z,8.17
2023-05-05T08:32:38.552Z,10.82
2023-05-05T08:35:06.848Z,8.10
2023-05-05T08:37:34.799Z,9.77
2023-05-05T08:40:22.874Z,8.82
2023-05-05T08:42:50.209Z,7.97
2023-05-05T08:45:17.588Z,7.15
2023-05-05T08:48:10.285Z,8.93
2023-05-05T08:50:37.724Z,9.07
2023-05-05T08:53:11.620Z,8.02
2023-05-05T08:55:46.590Z,5.90
2023-05-05T08:58:14.033Z,9.88
2023-05-05T09:00:42.977Z,7.13
2023-05-05T09:03:10.807Z,8.40
2023-05-05T09:05:38.247Z,7.57
2023-05-05T09:08:06.869Z,8.27
2023-05-05T09:10:34.656Z,8.23
2023-05-05T09:13:04.043Z,7.30
2023-05-05T09:15:32.244Z,6.65
2023-05-05T09:18:00.709Z,8.65
2023-05-05T09:20:35.747Z,8.37
2023-05-05T09:23:19.753Z,7.10
2023-05-05T09:26:05.002Z,8.15
2023-05-05T09:28:32.564Z,5.85
2023-05-05T09:31:13.768Z,6.38
2023-05-05T09:33:41.438Z,5.67
2023-05-05T09:36:08.916Z,6.55
2023-05-05T09:38:36.910Z,7.65
2023-05-05T09:41:05.453Z,5.57
2023-05-05T09:43:52.577Z,6.32
2023-05-05T09:46:20.135Z,7.47
2023-05-05T09:48:47.755Z,6.65
2023-05-05T09:51:15.281Z,8.25
2023-05-05T09:53:42.747Z,7.78
2023-05-05T09:56:10.559Z,7.85
2023-05-05T09:58:38.025Z,9.13
2023-05-05T10:01:05.909Z,7.97
2023-05-05T10:03:33.320Z,7.95
2023-05-05T10:06:04.707Z,7.00
2023-05-05T10:08:33.739Z,9.50
2023-05-05T10:11:06.498Z,7.17
2023-05-05T10:13:36.465Z,5.63
2023-05-05T10:16:04.423Z,10.00
2023-05-05T10:18:32.340Z,6.78
2023-05-05T10:21:04.460Z,7.38
2023-05-05T10:24:04.400Z,5.47
2023-05-05T10:26:31.741Z,9.10
2023-05-05T10:29:01.444Z,6.82
2023-05-05T10:31:49.020Z,8.50
2023-05-05T10:34:21.936Z,9.50
2023-05-05T10:36:49.756Z,8.90
2023-05-05T10:39:17.230Z,7.03
2023-05-05T10:41:44.601Z,7.25
2023-05-05T10:44:12.067Z,7.13
2023-05-05T10:46:39.508Z,7.28
2023-05-05T10:49:30.528Z,12.80
2023-05-05T10:52:13.545Z,7.15
2023-05-05T10:55:01.392Z,6.32
2023-05-05T10:57:29.053Z,7.22
2023-05-05T10:59:56.406Z,6.50
2023-05-05T11:02:28.084Z,6.43
2023-05-05T11:05:24.834Z,6.95
2023-05-05T11:07:52.216Z,7.28
2023-05-05T11:10:23.788Z,10.30
2023-05-05T11:12:54.480Z,6.78
2023-05-05T11:15:27.711Z,11.17
2023-05-05T11:17:55.914Z,6.20
2023-05-05T11:20:43.494Z,6.28
2023-05-05T11:23:10.845Z,7.93
2023-05-05T11:25:41.425Z,13.55
2023-05-05T11:28:23.238Z,7.20
2023-05-05T11:30:57.835Z,7.70
2023-05-05T11:33:31.952Z,8.00
2023-05-05T11:36:08.448Z,8.60
2023-05-05T11:38:38.672Z,8.32
2023-05-05T11:41:10.392Z,7.67
2023-05-05T11:43:37.752Z,6.32
2023-05-05T11:46:12.449Z,7.55
2023-05-05T11:48:49.104Z,7.43
2023-05-05T11:51:17.079Z,8.05
2023-05-05T11:53:45.153Z,6.63
2023-05-05T11:56:14.220Z,7.13
2023-05-05T11:58:41.972Z,9.18
2023-05-05T12:01:09.357Z,10.27
2023-05-05T12:03:39.831Z,7.90
2023-05-05T12:06:07.837Z,7.50
2023-05-05T12:08:38.826Z,7.68
2023-05-05T12:11:07.877Z,8.05
2023-05-05T12:13:35.221Z,9.05
2023-05-05T12:16:12.935Z,7.20
2023-05-05T12:18:40.648Z,10.30
2023-05-05T12:21:15.396Z,7.95
2023-05-05T12:23:43.014Z,7.03
2023-05-05T12:26:32.163Z,8.75
2023-05-05T12:28:59.840Z,5.90
2023-05-05T12:31:40.448Z,7.27
2023-05-05T12:34:09.063Z,8.30
2023-05-05T12:36:36.625Z,7.50
2023-05-05T12:39:06.938Z,7.47
2023-05-05T12:41:34.463Z,7.68
2023-05-05T12:44:03.057Z,6.33
2023-05-05T12:46:31.804Z,7.32
2023-05-05T12:49:05.134Z,8.27
2023-05-05T12:51:36.065Z,8.10
2023-05-05T12:54:07.531Z,5.40
2023-05-05T12:56:39.837Z,8.10
2023-05-05T12:59:08.412Z,9.35
2023-05-05T13:01:36.557Z,7.78
2023-05-05T13:04:07.741Z,7.32
2023-05-05T13:06:35.954Z,5.80
2023-05-05T13:09:04.478Z,7.70
2023-05-05T13:11:35.778Z,10.00
2023-05-05T13:14:03.822Z,6.78
2023-05-05T13:16:33.973Z,6.50
2023-05-05T13:19:01.319Z,6.57
2023-05-05T13:21:28.576Z,6.73
2023-05-05T13:24:01.538Z,8.70
2023-05-05T13:26:39.654Z,8.85
2023-05-05T13:29:06.929Z,6.47
2023-05-05T13:31:34.260Z,9.48
2023-05-05T13:34:01.569Z,7.07
2023-05-05T13:36:28.881Z,7.13
2023-05-05T13:38:56.160Z,7.07
2023-05-05T13:41:23.403Z,6.68
2023-05-05T13:43:51.323Z,7.72
2023-05-05T13:46:20.308Z,11.33
2023-05-05T13:48:47.914Z,7.72
2023-05-05T13:51:16.425Z,8.05
2023-05-05T13:53:46.903Z,6.22
2023-05-05T13:56:14.597Z,7.53
2023-05-05T13:58:42.508Z,7.17
2023-05-05T14:01:10.436Z,9.50
2023-05-05T14:03:39.599Z,8.05
2023-05-05T14:06:09.100Z,6.68
2023-05-05T14:08:36.543Z,8.30
2023-05-05T14:11:03.909Z,6.37
2023-05-05T14:13:31.290Z,6.88
2023-05-05T14:15:58.557Z,7.03
2023-05-05T14:18:26.001Z,7.35
2023-05-05T14:20:53.329Z,6.75
2023-05-05T14:23:20.657Z,9.23
2023-05-05T14:25:47.991Z,8.55
2023-05-05T14:28:15.374Z,8.15
2023-05-05T14:30:42.719Z,6.70
2023-05-05T14:33:10.289Z,6.00
2023-05-05T14:35:37.589Z,8.60
2023-05-05T14:38:04.937Z,6.93
2023-05-05T14:40:32.296Z,6.78
2023-05-05T14:43:00.211Z,7.72
2023-05-05T14:45:29.596Z,6.97
2023-05-05T14:47:56.913Z,9.27
2023-05-05T14:50:24.245Z,7.18
2023-05-05T14:52:51.511Z,6.55
2023-05-05T14:55:18.919Z,8.30
2023-05-05T14:57:46.222Z,7.18
2023-05-05T15:00:14.021Z,6.03
2023-05-05T15:02:41.373Z,6.97
2023-05-05T15:05:09.094Z,8.05
2023-05-05T15:07:36.594Z,6.50
2023-05-05T15:10:04.972Z,7.20
2023-05-05T15:12:32.397Z,10.83
2023-05-05T15:14:59.722Z,7.97
2023-05-05T15:17:27.054Z,5.90
2023-05-05T15:19:54.467Z,7.68
2023-05-05T15:22:21.770Z,8.20
2023-05-05T15:24:49.150Z,7.30
2023-05-05T15:27:18.102Z,6.75
2023-05-05T15:29:45.454Z,5.35
2023-05-05T15:32:12.889Z,4.88
2023-05-05T15:34:40.220Z,7.18
2023-05-05T15:37:07.514Z,7.53
2023-05-05T15:39:34.749Z,7.57
2023-05-05T15:42:04.960Z,6.53
2023-05-05T15:44:32.320Z,7.70
2023-05-05T15:46:59.677Z,6.07
2023-05-05T15:49:26.946Z,5.87
2023-05-05T15:51:54.249Z,7.05
2023-05-05T15:54:21.659Z,10.77
2023-05-05T15:56:48.917Z,5.95
2023-05-05T15:59:31.779Z,6.00
2023-05-05T16:02:03.540Z,12.13
2023-05-05T16:04:33.770Z,7.03
2023-05-05T16:07:11.384Z,6.60
2023-05-05T16:09:38.855Z,5.40
2023-05-05T16:12:06.150Z,7.18
2023-05-05T16:14:33.435Z,6.87
2023-05-05T16:17:04.058Z,8.93
2023-05-05T16:19:31.436Z,7.10
2023-05-05T16:21:58.753Z,6.03
2023-05-05T16:24:26.125Z,9.88
2023-05-05T16:26:53.407Z,7.73
2023-05-05T16:29:20.748Z,6.22
2023-05-05T16:31:48.067Z,7.10
2023-05-05T16:34:16.458Z,7.30
2023-05-05T16:36:44.477Z,7.85
2023-05-05T16:39:14.404Z,8.80
2023-05-05T16:41:42.212Z,7.28
2023-05-05T16:44:09.615Z,5.13
2023-05-05T16:46:37.457Z,6.35
2023-05-05T16:49:05.016Z,9.45
2023-05-05T16:51:32.330Z,10.10
2023-05-05T16:53:59.606Z,6.85
2023-05-05T16:56:26.944Z,9.55
2023-05-05T16:58:54.221Z,7.85
2023-05-05T17:01:21.586Z,5.93
2023-05-05T17:03:48.884Z,8.20
2023-05-05T17:06:16.221Z,9.90
2023-05-05T17:08:43.575Z,19.23
2023-05-05T17:11:11.842Z,8.82
2023-05-05T17:13:39.296Z,11.07
2023-05-05T17:16:07.031Z,7.57
2023-05-05T17:18:34.385Z,6.93
2023-05-05T17:21:01.715Z,7.55
2023-05-05T17:23:29.006Z,7.68
2023-05-05T17:25:58.765Z,10.52
2023-05-05T17:28:26.464Z,10.73
2023-05-05T17:30:53.859Z,10.45
2023-05-05T17:33:22.129Z,8.50
2023-05-05T17:35:49.443Z,10.52
2023-05-05T17:38:17.566Z,14.15
2023-05-05T17:40:45.164Z,8.20
2023-05-05T17:43:12.474Z,9.10
2023-05-05T17:45:39.753Z,10.02
2023-05-05T17:48:08.078Z,10.20
2023-05-05T17:50:35.380Z,9.70
2023-05-05T17:53:02.707Z,9.30
2023-05-05T17:55:30.306Z,11.50
2023-05-05T17:57:59.043Z,7.93
2023-05-05T18:00:26.424Z,9.93
2023-05-05T18:02:53.790Z,9.05
2023-05-05T18:05:21.289Z,9.63
2023-05-05T18:07:48.542Z,8.38
2023-05-05T18:10:16.715Z,7.75
2023-05-05T18:12:44.092Z,11.55
2023-05-05T18:15:12.024Z,7.95
2023-05-05T18:17:39.513Z,8.50
2023-05-05T18:20:07.466Z,7.20
2023-05-05T18:22:34.768Z,8.57
2023-05-05T18:25:02.063Z,11.68
2023-05-05T18:27:32.407Z,9.10
2023-05-05T18:30:00.232Z,7.00
2023-05-05T18:32:28.949Z,9.57
2023-05-05T18:34:56.281Z,6.93
2023-05-05T18:37:23.550Z,8.07
2023-05-05T18:39:50.795Z,9.20
2023-05-05T18:42:18.081Z,8.77
2023-05-05T18:44:45.704Z,8.25
2023-05-05T18:47:13.037Z,6.82
2023-05-05T18:49:40.289Z,8.75
2023-05-05T18:52:07.583Z,8.20
2023-05-05T18:54:36.314Z,14.50
2023-05-05T18:57:06.650Z,7.93
2023-05-05T18:59:34.056Z,9.30
2023-05-05T19:02:02.392Z,10.70
2023-05-05T19:04:31.584Z,10.75
2023-05-05T19:06:59.717Z,12.97
2023-05-05T19:09:27.478Z,16.15
2023-05-05T19:11:54.836Z,16.25
2023-05-05T19:14:22.819Z,17.50
2023-05-05T19:16:50.167Z,16.10
2023-05-05T19:19:17.524Z,17.23
2023-05-05T19:21:44.782Z,15.70
2023-05-05T19:24:12.052Z,16.33
2023-05-05T19:26:39.330Z,18.73
2023-05-05T19:29:06.567Z,19.40
2023-05-05T19:31:33.879Z,20.00
2023-05-05T19:34:02.832Z,19.63
2023-05-05T19:36:33.067Z,19.38
2023-05-05T19:39:01.714Z,21.52
2023-05-05T19:41:30.580Z,20.38
2023-05-05T19:43:57.936Z,15.03
2023-05-05T19:46:28.229Z,13.60
2023-05-05T19:48:55.818Z,18.33
2023-05-05T19:51:23.191Z,16.77
2023-05-05T19:53:50.760Z,18.02
2023-05-05T19:56:18.115Z,16.30
2023-05-05T19:58:59.243Z,14.68
2023-05-05T20:01:27.212Z,12.90
2023-05-05T20:03:55.848Z,12.02
2023-05-05T20:06:23.313Z,12.85
2023-05-05T20:08:50.890Z,11.13
2023-05-05T20:11:18.284Z,11.90
2023-05-05T20:13:45.574Z,10.35
2023-05-05T20:16:12.986Z,13.75
2023-05-05T20:18:40.401Z,12.98
2023-05-05T20:21:07.702Z,16.47
2023-05-05T20:23:35.085Z,14.18
2023-05-05T20:26:02.617Z,12.38
2023-05-05T20:28:31.622Z,10.52
2023-05-05T20:31:00.617Z,13.80
2023-05-05T20:33:28.462Z,11.30
2023-05-05T20:35:55.875Z,12.50
2023-05-05T20:38:23.209Z,12.23
2023-05-05T20:40:50.822Z,11.23
2023-05-05T20:43:18.834Z,9.55
2023-05-05T20:45:46.677Z,12.27
2023-05-05T20:48:14.030Z,13.73
2023-05-05T20:50:41.529Z,12.07
2023-05-05T20:53:09.189Z,11.93
2023-05-05T20:55:36.527Z,12.48
2023-05-05T20:58:04.653Z,11.37
2023-05-05T21:00:32.010Z,9.35
2023-05-05T21:02:59.399Z,10.38
2023-05-05T21:05:26.826Z,9.90
2023-05-05T21:07:54.237Z,13.40
2023-05-05T21:10:21.623Z,12.63
2023-05-05T21:12:48.972Z,12.07
2023-05-05T21:15:16.726Z,12.00
2023-05-05T21:17:44.247Z,10.18
2023-05-05T21:20:12.243Z,11.95
2023-05-05T21:22:39.780Z,9.97
2023-05-05T21:25:20.508Z,11.25
2023-05-05T21:27:48.316Z,11.95
2023-05-05T21:30:16.188Z,11.43
2023-05-05T21:32:44.068Z,11.55
2023-05-05T21:35:11.468Z,12.23
2023-05-05T21:37:39.197Z,14.95
2023-05-05T21:40:10.823Z,13.60
2023-05-05T21:42:38.523Z,12.60
2023-05-05T21:45:06.248Z,12.63
2023-05-05T21:47:33.806Z,13.70
2023-05-05T21:50:01.163Z,11.00
2023-05-05T21:52:28.482Z,11.25
2023-05-05T21:54:56.014Z,12.07
2023-05-05T21:57:23.368Z,14.35
2023-05-05T21:59:50.931Z,10.37
2023-05-05T22:02:18.217Z,8.95
2023-05-05T22:04:48.710Z,11.05
2023-05-05T22:07:16.473Z,12.35
2023-05-05T22:09:44.032Z,12.75
2023-05-05T22:12:11.306Z,13.63
2023-05-05T22:14:38.600Z,13.95
2023-05-05T22:17:05.942Z,10.70
2023-05-05T22:19:33.211Z,10.60
2023-05-05T22:22:00.522Z,13.00
2023-05-05T22:24:27.781Z,10.77
2023-05-05T22:26:57.273Z,14.63
2023-05-05T22:29:25.243Z,13.50
2023-05-05T22:31:52.796Z,12.25
2023-05-05T22:34:21.807Z,14.85
2023-05-05T22:36:49.336Z,13.03
2023-05-05T22:39:18.546Z,13.50
2023-05-05T22:41:46.508Z,12.23
2023-05-05T22:44:13.891Z,13.48
2023-05-05T22:46:41.284Z,13.30
2023-05-05T22:49:08.814Z,15.80
2023-05-05T22:51:37.928Z,13.38
2023-05-05T22:54:05.330Z,12.88
2023-05-05T22:56:32.789Z,14.05
2023-05-05T22:59:00.061Z,12.35
2023-05-05T23:01:27.432Z,11.53
2023-05-05T23:03:54.765Z,13.93
2023-05-05T23:06:22.024Z,14.27
2023-05-05T23:08:49.350Z,14.68
2023-05-05T23:11:16.648Z,13.63
2023-05-05T23:13:43.972Z,15.07
2023-05-05T23:16:11.304Z,14.80
2023-05-05T23:18:38.886Z,11.93
2023-05-05T23:21:06.296Z,14.07
2023-05-05T23:23:33.609Z,12.52
2023-05-05T23:26:00.925Z,13.83
2023-05-05T23:28:28.172Z,12.70
2023-05-05T23:30:55.625Z,13.75
2023-05-05T23:33:22.975Z,12.23
2023-05-05T23:35:50.241Z,13.60
2023-05-05T23:38:17.457Z,17.27
2023-05-05T23:40:44.732Z,14.45
2023-05-05T23:43:14.825Z,13.20
2023-05-05T23:45:42.147Z,13.13
2023-05-05T23:48:09.517Z,11.05
2023-05-05T23:50:36.907Z,14.77
2023-05-05T23:53:04.135Z,13.32
2023-05-05T23:55:31.404Z,12.27
2023-05-05T23:57:58.689Z,14.10
